Hills, Texas
Current Conditions -  °F | °C
As of 1:15 PM on Tuesday 21 Oct 2014 (Local Time) from KGYB Reporting Station
Clear Clear  
Wind Chill: 78°   Ceiling: Unl
Heat Index: 79°   Visibility: 10mi
Dew Point: 53°   Wind: 6mph
Humidity: 41%   Direction: 30°NNE
Pressure: 30.09"   Gusts: NA
Location:  30.1897°N, 97.1182°W
Report Text: KGYB 211815Z AUTO 03005KT 10SM CLR 26/12 A3009 RMK AO2 T02560115
Loading
Personal Weather Stations






























Interactive Weather Map
Tropical Storm Tracking
New forecast layout! Learn more

10-Day Weather Forecast

Advertisements
Track Severe Weather on mobile